sensor_id;sensor_type;location;lat;lon;timestamp;pressure;altitude;pressure_sealevel;temperature;humidity
10940;BME280;5522;42.696;23.494;2023-02-16T00:01:20;53614.59;;;-139.68;100.00
10940;BME280;5522;42.696;23.494;2023-02-16T00:03:47;53642.72;;;-139.68;100.00
10940;BME280;5522;42.696;23.494;2023-02-16T00:06:15;53670.88;;;-139.68;100.00
10940;BME280;5522;42.696;23.494;2023-02-16T00:08:43;53658.81;;;-139.68;100.00
10940;BME280;5522;42.696;23.494;2023-02-16T00:11:14;53670.88;;;-139.68;100.00
10940;BME280;5522;42.696;23.494;2023-02-16T00:14:00;53646.75;;;-139.68;100.00
10940;BME280;5522;42.696;23.494;2023-02-16T00:16:27;53670.88;;;-139.68;100.00
10940;BME280;5522;42.696;23.494;2023-02-16T00:18:54;53610.56;;;-139.68;100.00
10940;BME280;5522;42.696;23.494;2023-02-16T00:21:21;53644.75;;;-139.68;100.00
10940;BME280;5522;42.696;23.494;2023-02-16T00:23:48;53666.84;;;-139.68;100.00
10940;BME280;5522;42.696;23.494;2023-02-16T00:26:17;53644.75;;;-139.68;100.00
10940;BME280;5522;42.696;23.494;2023-02-16T00:28:45;53622.63;;;-139.68;100.00
10940;BME280;5522;42.696;23.494;2023-02-16T00:31:20;53628.66;;;-139.68;100.00
10940;BME280;5522;42.696;23.494;2023-02-16T00:33:47;53678.91;;;-139.68;100.00
10940;BME280;5522;42.696;23.494;2023-02-16T00:36:14;53650.78;;;-139.68;100.00
10940;BME280;5522;42.696;23.494;2023-02-16T00:38:41;53634.69;;;-139.68;100.00
10940;BME280;5522;42.696;23.494;2023-02-16T00:41:14;53666.84;;;-139.68;100.00
10940;BME280;5522;42.696;23.494;2023-02-16T00:44:04;53666.84;;;-139.68;100.00
10940;BME280;5522;42.696;23.494;2023-02-16T00:46:32;53682.94;;;-139.68;100.00
10940;BME280;5522;42.696;23.494;2023-02-16T00:48:59;53646.75;;;-139.68;100.00
10940;BME280;5522;42.696;23.494;2023-02-16T00:51:26;53634.69;;;-139.68;100.00
10940;BME280;5522;42.696;23.494;2023-02-16T00:53:53;53642.72;;;-139.68;100.00
10940;BME280;5522;42.696;23.494;2023-02-16T00:56:20;53642.72;;;-139.68;100.00
10940;BME280;5522;42.696;23.494;2023-02-16T00:58:49;53658.81;;;-139.68;100.00
10940;BME280;5522;42.696;23.494;2023-02-16T01:06:43;53660.81;;;-139.68;100.00
10940;BME280;5522;42.696;23.494;2023-02-16T01:09:27;53602.53;;;-139.68;100.00
10940;BME280;5522;42.696;23.494;2023-02-16T01:12:15;53662.84;;;-139.68;100.00
10940;BME280;5522;42.696;23.494;2023-02-16T01:14:43;53638.72;;;-139.68;100.00
10940;BME280;5522;42.696;23.494;2023-02-16T01:17:11;53664.84;;;-139.68;100.00
10940;BME280;5522;42.696;23.494;2023-02-16T01:19:38;53644.75;;;-139.68;100.00
10940;BME280;5522;42.696;23.494;2023-02-16T01:22:06;53654.78;;;-139.68;100.00
10940;BME280;5522;42.696;23.494;2023-02-16T01:24:33;53668.88;;;-139.68;100.00
10940;BME280;5522;42.696;23.494;2023-02-16T01:27:00;53622.63;;;-139.68;100.00
10940;BME280;5522;42.696;23.494;2023-02-16T01:29:26;53610.56;;;-139.68;100.00
10940;BME280;5522;42.696;23.494;2023-02-16T01:31:53;53654.78;;;-139.68;100.00
10940;BME280;5522;42.696;23.494;2023-02-16T01:34:20;53620.63;;;-139.68;100.00
10940;BME280;5522;42.696;23.494;2023-02-16T01:36:48;53644.75;;;-139.68;100.00
10940;BME280;5522;42.696;23.494;2023-02-16T01:39:20;53628.66;;;-139.68;100.00
10940;BME280;5522;42.696;23.494;2023-02-16T01:44:38;53614.59;;;-139.68;100.00
10940;BME280;5522;42.696;23.494;2023-02-16T01:47:17;53654.78;;;-139.68;100.00
10940;BME280;5522;42.696;23.494;2023-02-16T01:49:49;53646.75;;;-139.68;100.00
10940;BME280;5522;42.696;23.494;2023-02-16T01:52:24;53608.56;;;-139.68;100.00
10940;BME280;5522;42.696;23.494;2023-02-16T01:54:59;53614.59;;;-139.68;100.00
10940;BME280;5522;42.696;23.494;2023-02-16T01:57:36;53614.59;;;-139.68;100.00
10940;BME280;5522;42.696;23.494;2023-02-16T02:00:12;53652.78;;;-139.68;100.00
10940;BME280;5522;42.696;23.494;2023-02-16T02:02:41;53648.75;;;-139.68;100.00
10940;BME280;5522;42.696;23.494;2023-02-16T02:05:20;53662.84;;;-139.68;100.00
10940;BME280;5522;42.696;23.494;2023-02-16T02:08:06;53606.56;;;-139.68;100.00
10940;BME280;5522;42.696;23.494;2023-02-16T02:10:46;53610.56;;;-139.68;100.00
10940;BME280;5522;42.696;23.494;2023-02-16T02:13:20;53614.59;;;-139.68;100.00
10940;BME280;5522;42.696;23.494;2023-02-16T02:15:56;53586.44;;;-139.68;100.00
10940;BME280;5522;42.696;23.494;2023-02-16T02:18:24;53606.56;;;-139.68;100.00
10940;BME280;5522;42.696;23.494;2023-02-16T02:21:07;53620.63;;;-139.68;100.00
10940;BME280;5522;42.696;23.494;2023-02-16T02:24:11;53608.56;;;-139.68;100.00
10940;BME280;5522;42.696;23.494;2023-02-16T02:26:58;53580.41;;;-139.68;100.00
10940;BME280;5522;42.696;23.494;2023-02-16T02:29:40;53634.69;;;-139.68;100.00
10940;BME280;5522;42.696;23.494;2023-02-16T02:32:15;53638.72;;;-139.68;100.00
10940;BME280;5522;42.696;23.494;2023-02-16T02:34:55;53620.63;;;-139.68;100.00
10940;BME280;5522;42.696;23.494;2023-02-16T02:37:30;53614.59;;;-139.68;100.00
10940;BME280;5522;42.696;23.494;2023-02-16T02:40:04;53586.44;;;-139.68;100.00
10940;BME280;5522;42.696;23.494;2023-02-16T02:42:41;53602.53;;;-139.68;100.00
10940;BME280;5522;42.696;23.494;2023-02-16T02:45:13;53590.47;;;-139.68;100.00
10940;BME280;5522;42.696;23.494;2023-02-16T02:47:44;53632.69;;;-139.68;100.00
10940;BME280;5522;42.696;23.494;2023-02-16T02:50:38;53618.63;;;-139.68;100.00
10940;BME280;5522;42.696;23.494;2023-02-16T02:53:10;53650.78;;;-139.68;100.00
10940;BME280;5522;42.696;23.494;2023-02-16T02:55:41;53640.72;;;-139.68;100.00
10940;BME280;5522;42.696;23.494;2023-02-16T02:58:32;53588.47;;;-139.68;100.00
10940;BME280;5522;42.696;23.494;2023-02-16T03:01:19;53582.44;;;-139.68;100.00
10940;BME280;5522;42.696;23.494;2023-02-16T03:03:50;53624.63;;;-139.68;100.00
10940;BME280;5522;42.696;23.494;2023-02-16T03:06:22;53594.50;;;-139.68;100.00
10940;BME280;5522;42.696;23.494;2023-02-16T03:08:53;53588.47;;;-139.68;100.00
10940;BME280;5522;42.696;23.494;2023-02-16T03:11:22;53662.84;;;-139.68;100.00
10940;BME280;5522;42.696;23.494;2023-02-16T03:14:13;53608.56;;;-139.68;100.00
10940;BME280;5522;42.696;23.494;2023-02-16T03:16:43;53606.56;;;-139.68;100.00
10940;BME280;5522;42.696;23.494;2023-02-16T03:19:12;53616.59;;;-139.68;100.00
10940;BME280;5522;42.696;23.494;2023-02-16T03:21:58;53608.56;;;-139.68;100.00
10940;BME280;5522;42.696;23.494;2023-02-16T03:24:44;53652.78;;;-139.68;100.00
10940;BME280;5522;42.696;23.494;2023-02-16T03:27:32;53568.34;;;-139.68;100.00
10940;BME280;5522;42.696;23.494;2023-02-16T03:30:19;53648.75;;;-139.68;100.00
10940;BME280;5522;42.696;23.494;2023-02-16T03:32:47;53618.63;;;-139.68;100.00
10940;BME280;5522;42.696;23.494;2023-02-16T03:35:15;53602.53;;;-139.68;100.00
10940;BME280;5522;42.696;23.494;2023-02-16T03:37:43;53588.47;;;-139.68;100.00
10940;BME280;5522;42.696;23.494;2023-02-16T03:40:13;53614.59;;;-139.68;100.00
10940;BME280;5522;42.696;23.494;2023-02-16T03:42:59;53624.63;;;-139.68;100.00
10940;BME280;5522;42.696;23.494;2023-02-16T03:45:29;53556.28;;;-139.68;100.00
10940;BME280;5522;42.696;23.494;2023-02-16T03:47:56;53626.66;;;-139.68;100.00
10940;BME280;5522;42.696;23.494;2023-02-16T03:50:23;53654.78;;;-139.68;100.00
10940;BME280;5522;42.696;23.494;2023-02-16T03:52:52;53630.66;;;-139.68;100.00
10940;BME280;5522;42.696;23.494;2023-02-16T03:55:31;53606.56;;;-139.68;100.00
10940;BME280;5522;42.696;23.494;2023-02-16T03:57:58;53606.56;;;-139.68;100.00
10940;BME280;5522;42.696;23.494;2023-02-16T04:00:25;53590.47;;;-139.68;100.00
10940;BME280;5522;42.696;23.494;2023-02-16T04:02:53;53622.63;;;-139.68;100.00
10940;BME280;5522;42.696;23.494;2023-02-16T04:05:20;53632.69;;;-139.68;100.00
10940;BME280;5522;42.696;23.494;2023-02-16T04:07:47;53600.53;;;-139.68;100.00
10940;BME280;5522;42.696;23.494;2023-02-16T04:10:14;53626.66;;;-139.68;100.00
10940;BME280;5522;42.696;23.494;2023-02-16T04:12:41;53608.56;;;-139.68;100.00
10940;BME280;5522;42.696;23.494;2023-02-16T04:15:12;53602.53;;;-139.68;100.00
10940;BME280;5522;42.696;23.494;2023-02-16T04:17:40;53594.50;;;-139.68;100.00
10940;BME280;5522;42.696;23.494;2023-02-16T04:20:10;53600.53;;;-139.68;100.00
10940;BME280;5522;42.696;23.494;2023-02-16T04:22:38;53618.63;;;-139.68;100.00
10940;BME280;5522;42.696;23.494;2023-02-16T04:25:05;53602.53;;;-139.68;100.00
10940;BME280;5522;42.696;23.494;2023-02-16T04:27:33;53602.53;;;-139.68;100.00
10940;BME280;5522;42.696;23.494;2023-02-16T04:30:00;53610.56;;;-139.68;100.00
10940;BME280;5522;42.696;23.494;2023-02-16T04:32:26;53604.53;;;-139.68;100.00
10940;BME280;5522;42.696;23.494;2023-02-16T04:34:53;53578.41;;;-139.68;100.00
10940;BME280;5522;42.696;23.494;2023-02-16T04:37:22;53578.41;;;-139.68;100.00
10940;BME280;5522;42.696;23.494;2023-02-16T04:39:48;53646.75;;;-139.68;100.00
10940;BME280;5522;42.696;23.494;2023-02-16T04:42:15;53610.56;;;-139.68;100.00
10940;BME280;5522;42.696;23.494;2023-02-16T04:44:42;53546.25;;;-139.68;100.00
10940;BME280;5522;42.696;23.494;2023-02-16T04:47:09;53598.50;;;-139.68;100.00
10940;BME280;5522;42.696;23.494;2023-02-16T04:49:36;53562.31;;;-139.68;100.00
10940;BME280;5522;42.696;23.494;2023-02-16T04:52:04;53590.47;;;-139.68;100.00
10940;BME280;5522;42.696;23.494;2023-02-16T04:54:32;53594.50;;;-139.68;100.00
10940;BME280;5522;42.696;23.494;2023-02-16T04:56:59;53586.44;;;-139.68;100.00
10940;BME280;5522;42.696;23.494;2023-02-16T04:59:26;53610.56;;;-139.68;100.00
10940;BME280;5522;42.696;23.494;2023-02-16T05:01:53;53590.47;;;-139.68;100.00
10940;BME280;5522;42.696;23.494;2023-02-16T05:04:21;53582.44;;;-139.68;100.00
10940;BME280;5522;42.696;23.494;2023-02-16T05:06:49;53584.44;;;-139.68;100.00
10940;BME280;5522;42.696;23.494;2023-02-16T05:09:16;53572.38;;;-139.68;100.00
10940;BME280;5522;42.696;23.494;2023-02-16T05:11:44;53586.44;;;-139.68;100.00
10940;BME280;5522;42.696;23.494;2023-02-16T05:14:30;53598.50;;;-139.68;100.00
10940;BME280;5522;42.696;23.494;2023-02-16T05:17:15;53586.44;;;-139.68;100.00
10940;BME280;5522;42.696;23.494;2023-02-16T05:19:45;53606.56;;;-139.68;100.00
10940;BME280;5522;42.696;23.494;2023-02-16T05:22:13;53546.25;;;-139.68;100.00
10940;BME280;5522;42.696;23.494;2023-02-16T05:24:41;53616.59;;;-139.68;100.00
10940;BME280;5522;42.696;23.494;2023-02-16T05:27:12;53612.56;;;-139.68;100.00
10940;BME280;5522;42.696;23.494;2023-02-16T05:29:39;53582.44;;;-139.68;100.00
10940;BME280;5522;42.696;23.494;2023-02-16T05:32:06;53610.56;;;-139.68;100.00
10940;BME280;5522;42.696;23.494;2023-02-16T05:34:32;53574.38;;;-139.68;100.00
10940;BME280;5522;42.696;23.494;2023-02-16T05:36:59;53550.25;;;-139.68;100.00
10940;BME280;5522;42.696;23.494;2023-02-16T05:39:26;53586.44;;;-139.68;100.00
10940;BME280;5522;42.696;23.494;2023-02-16T05:41:53;53606.56;;;-139.68;100.00
10940;BME280;5522;42.696;23.494;2023-02-16T05:44:22;53590.47;;;-139.68;100.00
10940;BME280;5522;42.696;23.494;2023-02-16T05:46:49;53570.38;;;-139.68;100.00
10940;BME280;5522;42.696;23.494;2023-02-16T05:49:16;53594.50;;;-139.68;100.00
10940;BME280;5522;42.696;23.494;2023-02-16T05:51:43;53604.53;;;-139.68;100.00
10940;BME280;5522;42.696;23.494;2023-02-16T05:54:10;53606.56;;;-139.68;100.00
10940;BME280;5522;42.696;23.494;2023-02-16T05:56:42;53614.59;;;-139.68;100.00
10940;BME280;5522;42.696;23.494;2023-02-16T05:59:10;53644.75;;;-139.68;100.00
10940;BME280;5522;42.696;23.494;2023-02-16T06:01:38;53626.66;;;-139.68;100.00
10940;BME280;5522;42.696;23.494;2023-02-16T06:04:06;53618.63;;;-139.68;100.00
10940;BME280;5522;42.696;23.494;2023-02-16T06:06:34;53602.53;;;-139.68;100.00
10940;BME280;5522;42.696;23.494;2023-02-16T06:09:02;53616.59;;;-139.68;100.00
10940;BME280;5522;42.696;23.494;2023-02-16T06:11:29;53642.72;;;-139.68;100.00
10940;BME280;5522;42.696;23.494;2023-02-16T06:14:02;53620.63;;;-139.68;100.00
10940;BME280;5522;42.696;23.494;2023-02-16T06:16:31;53606.56;;;-139.68;100.00
10940;BME280;5522;42.696;23.494;2023-02-16T06:18:59;53680.94;;;-139.68;100.00
10940;BME280;5522;42.696;23.494;2023-02-16T06:21:27;53640.72;;;-139.68;100.00
10940;BME280;5522;42.696;23.494;2023-02-16T06:23:54;53648.75;;;-139.68;100.00
10940;BME280;5522;42.696;23.494;2023-02-16T06:26:21;53672.88;;;-139.68;100.00
10940;BME280;5522;42.696;23.494;2023-02-16T06:28:48;53634.69;;;-139.68;100.00
10940;BME280;5522;42.696;23.494;2023-02-16T06:31:15;53652.78;;;-139.68;100.00
10940;BME280;5522;42.696;23.494;2023-02-16T06:33:42;53656.81;;;-139.68;100.00
10940;BME280;5522;42.696;23.494;2023-02-16T06:36:11;53662.84;;;-139.68;100.00
10940;BME280;5522;42.696;23.494;2023-02-16T06:38:38;53662.84;;;-139.68;100.00
10940;BME280;5522;42.696;23.494;2023-02-16T06:41:05;53622.63;;;-139.68;100.00
10940;BME280;5522;42.696;23.494;2023-02-16T06:43:32;53654.78;;;-139.68;100.00
10940;BME280;5522;42.696;23.494;2023-02-16T06:45:59;53638.72;;;-139.68;100.00
10940;BME280;5522;42.696;23.494;2023-02-16T06:48:27;53674.91;;;-139.68;100.00
10940;BME280;5522;42.696;23.494;2023-02-16T06:50:54;53678.91;;;-139.68;100.00
10940;BME280;5522;42.696;23.494;2023-02-16T06:53:22;53688.97;;;-139.68;100.00
10940;BME280;5522;42.696;23.494;2023-02-16T06:55:50;53656.81;;;-139.68;100.00
10940;BME280;5522;42.696;23.494;2023-02-16T06:58:17;53711.09;;;-139.68;100.00
10940;BME280;5522;42.696;23.494;2023-02-16T07:00:44;53658.81;;;-139.68;100.00
10940;BME280;5522;42.696;23.494;2023-02-16T07:03:11;53709.06;;;-139.68;96.12
10940;BME280;5522;42.696;23.494;2023-02-16T07:05:37;53699.03;;;-139.68;94.97
10940;BME280;5522;42.696;23.494;2023-02-16T07:08:04;53703.03;;;-139.68;92.87
10940;BME280;5522;42.696;23.494;2023-02-16T07:10:33;53674.91;;;-139.68;97.81
10940;BME280;5522;42.696;23.494;2023-02-16T07:13:00;53662.84;;;-139.68;100.00
10940;BME280;5522;42.696;23.494;2023-02-16T07:15:26;53697.00;;;-139.68;100.00
10940;BME280;5522;42.696;23.494;2023-02-16T07:17:53;53642.72;;;-139.68;100.00
10940;BME280;5522;42.696;23.494;2023-02-16T07:20:20;53674.91;;;-139.68;100.00
10940;BME280;5522;42.696;23.494;2023-02-16T07:22:47;53690.97;;;-139.68;100.00
10940;BME280;5522;42.696;23.494;2023-02-16T07:25:14;53678.91;;;-139.68;98.52
10940;BME280;5522;42.696;23.494;2023-02-16T07:27:42;53695.00;;;-139.68;95.75
10940;BME280;5522;42.696;23.494;2023-02-16T07:30:10;53672.88;;;-139.68;94.03
10940;BME280;5522;42.696;23.494;2023-02-16T07:32:38;53703.03;;;-139.68;92.93
10940;BME280;5522;42.696;23.494;2023-02-16T07:35:05;53668.88;;;-139.68;95.06
10940;BME280;5522;42.696;23.494;2023-02-16T07:37:32;53741.22;;;-139.68;93.83
10940;BME280;5522;42.696;23.494;2023-02-16T07:39:59;53695.00;;;-139.68;88.64
10940;BME280;5522;42.696;23.494;2023-02-16T07:42:28;53719.13;;;-139.68;88.60
10940;BME280;5522;42.696;23.494;2023-02-16T07:44:58;53723.13;;;-139.68;82.91
10940;BME280;5522;42.696;23.494;2023-02-16T07:47:25;53733.19;;;-139.68;74.24
10940;BME280;5522;42.696;23.494;2023-02-16T07:49:52;53741.22;;;-139.68;59.16
10940;BME280;5522;42.696;23.494;2023-02-16T07:52:19;53779.44;;;-139.68;48.63
10940;BME280;5522;42.696;23.494;2023-02-16T07:54:46;53823.66;;;-139.68;42.44
10940;BME280;5522;42.696;23.494;2023-02-16T07:57:13;53771.38;;;-139.68;44.46
10940;BME280;5522;42.696;23.494;2023-02-16T07:59:40;53811.59;;;-139.68;41.81
10940;BME280;5522;42.696;23.494;2023-02-16T08:02:15;53853.81;;;-139.68;39.63
10940;BME280;5522;42.696;23.494;2023-02-16T08:04:42;53805.56;;;-139.68;38.17
10940;BME280;5522;42.696;23.494;2023-02-16T08:07:11;53853.81;;;-139.68;39.09
10940;BME280;5522;42.696;23.494;2023-02-16T08:09:38;53823.66;;;-139.68;38.08
10940;BME280;5522;42.696;23.494;2023-02-16T08:12:07;53827.69;;;-139.68;36.37
10940;BME280;5522;42.696;23.494;2023-02-16T08:14:34;53811.59;;;-139.68;35.96
10940;BME280;5522;42.696;23.494;2023-02-16T08:17:01;53807.56;;;-139.68;34.46
10940;BME280;5522;42.696;23.494;2023-02-16T08:19:30;53823.66;;;-139.68;33.92
10940;BME280;5522;42.696;23.494;2023-02-16T08:21:57;53859.84;;;-139.68;32.69
10940;BME280;5522;42.696;23.494;2023-02-16T08:24:25;53819.63;;;-139.68;34.33
10940;BME280;5522;42.696;23.494;2023-02-16T08:46:07;53871.91;;;-139.68;31.93
10940;BME280;5522;42.696;23.494;2023-02-16T08:48:35;53845.78;;;-139.68;31.18
10940;BME280;5522;42.696;23.494;2023-02-16T08:51:03;53861.84;;;-139.68;30.85
10940;BME280;5522;42.696;23.494;2023-02-16T08:53:31;53890.00;;;-139.68;31.25
10940;BME280;5522;42.696;23.494;2023-02-16T08:56:03;53879.94;;;-139.68;31.04
10940;BME280;5522;42.696;23.494;2023-02-16T08:58:30;53908.09;;;-139.68;29.90
10940;BME280;5522;42.696;23.494;2023-02-16T09:00:57;53875.94;;;-139.68;29.46
10940;BME280;5522;42.696;23.494;2023-02-16T09:03:25;53851.81;;;-139.68;29.34
10940;BME280;5522;42.696;23.494;2023-02-16T09:05:52;53869.91;;;-139.68;30.09
10940;BME280;5522;42.696;23.494;2023-02-16T09:08:20;53879.94;;;-139.68;30.32
10940;BME280;5522;42.696;23.494;2023-02-16T09:10:47;53871.91;;;-139.68;30.16
10940;BME280;5522;42.696;23.494;2023-02-16T09:13:14;53875.94;;;-139.68;30.84
10940;BME280;5522;42.696;23.494;2023-02-16T09:15:41;53924.16;;;-139.68;31.69
10940;BME280;5522;42.696;23.494;2023-02-16T09:18:08;53883.97;;;-139.68;32.90
10940;BME280;5522;42.696;23.494;2023-02-16T09:20:38;53900.06;;;-139.68;32.17
10940;BME280;5522;42.696;23.494;2023-02-16T09:23:06;53877.94;;;-139.68;31.60
10940;BME280;5522;42.696;23.494;2023-02-16T09:25:35;53904.06;;;-139.68;30.74
10940;BME280;5522;42.696;23.494;2023-02-16T09:28:03;53855.81;;;-139.68;30.05
10940;BME280;5522;42.696;23.494;2023-02-16T09:30:31;53916.13;;;-139.68;29.40
10940;BME280;5522;42.696;23.494;2023-02-16T09:32:58;53867.88;;;-139.68;28.48
10940;BME280;5522;42.696;23.494;2023-02-16T09:35:25;53855.81;;;-139.68;28.52
10940;BME280;5522;42.696;23.494;2023-02-16T09:37:54;53916.13;;;-139.68;28.98
10940;BME280;5522;42.696;23.494;2023-02-16T09:40:22;53883.97;;;-139.68;28.21
10940;BME280;5522;42.696;23.494;2023-02-16T09:42:57;53964.38;;;-139.68;28.54
10940;BME280;5522;42.696;23.494;2023-02-16T09:45:30;53898.03;;;-139.68;26.96
10940;BME280;5522;42.696;23.494;2023-02-16T09:47:59;53912.13;;;-139.68;26.29
10940;BME280;5522;42.696;23.494;2023-02-16T09:50:27;53916.13;;;-139.68;28.35
10940;BME280;5522;42.696;23.494;2023-02-16T09:52:58;53900.06;;;-139.68;27.84
10940;BME280;5522;42.696;23.494;2023-02-16T09:55:33;53904.06;;;-139.68;28.71
10940;BME280;5522;42.696;23.494;2023-02-16T09:58:06;53932.22;;;-139.68;27.40
10940;BME280;5522;42.696;23.494;2023-02-16T10:00:48;53920.16;;;-139.68;28.35
10940;BME280;5522;42.696;23.494;2023-02-16T10:03:34;53928.19;;;-139.68;28.36
10940;BME280;5522;42.696;23.494;2023-02-16T10:06:16;53900.06;;;-139.68;27.77
10940;BME280;5522;42.696;23.494;2023-02-16T10:08:54;53896.03;;;-139.68;27.66
10940;BME280;5522;42.696;23.494;2023-02-16T10:11:23;53906.06;;;-139.68;28.14
10940;BME280;5522;42.696;23.494;2023-02-16T10:14:10;53944.28;;;-139.68;28.11
10940;BME280;5522;42.696;23.494;2023-02-16T10:16:40;53932.22;;;-139.68;28.29
10940;BME280;5522;42.696;23.494;2023-02-16T10:19:16;53936.22;;;-139.68;28.20
10940;BME280;5522;42.696;23.494;2023-02-16T10:21:50;53952.31;;;-139.68;27.95
10940;BME280;5522;42.696;23.494;2023-02-16T10:24:20;53938.25;;;-139.68;28.39
10940;BME280;5522;42.696;23.494;2023-02-16T10:26:50;53934.22;;;-139.68;27.56
10940;BME280;5522;42.696;23.494;2023-02-16T10:29:21;53894.03;;;-139.68;27.61
10940;BME280;5522;42.696;23.494;2023-02-16T10:31:58;53885.97;;;-139.68;27.24
10940;BME280;5522;42.696;23.494;2023-02-16T10:34:37;53910.09;;;-139.68;27.24
10940;BME280;5522;42.696;23.494;2023-02-16T10:37:18;53940.25;;;-139.68;26.96
10940;BME280;5522;42.696;23.494;2023-02-16T10:39:58;53871.91;;;-139.68;27.64
10940;BME280;5522;42.696;23.494;2023-02-16T10:42:36;53924.16;;;-139.68;27.79
10940;BME280;5522;42.696;23.494;2023-02-16T10:45:17;53888.00;;;-139.68;27.37
10940;BME280;5522;42.696;23.494;2023-02-16T10:47:46;53934.22;;;-139.68;26.76
10940;BME280;5522;42.696;23.494;2023-02-16T10:50:22;53869.91;;;-139.68;26.66
10940;BME280;5522;42.696;23.494;2023-02-16T10:52:51;53920.16;;;-139.68;26.11
10940;BME280;5522;42.696;23.494;2023-02-16T10:55:23;53902.06;;;-139.68;25.24
10940;BME280;5522;42.696;23.494;2023-02-16T10:57:53;53938.25;;;-139.68;25.07
10940;BME280;5522;42.696;23.494;2023-02-16T11:00:26;53978.47;;;-139.68;23.96
10940;BME280;5522;42.696;23.494;2023-02-16T11:02:56;53992.53;;;-139.68;23.34
10940;BME280;5522;42.696;23.494;2023-02-16T11:05:33;53936.22;;;-139.68;23.17
10940;BME280;5522;42.696;23.494;2023-02-16T11:08:01;53960.38;;;-139.68;23.56
10940;BME280;5522;42.696;23.494;2023-02-16T11:10:45;53938.25;;;-139.68;24.33
10940;BME280;5522;42.696;23.494;2023-02-16T11:13:23;53976.44;;;-139.68;24.84
10940;BME280;5522;42.696;23.494;2023-02-16T11:15:52;53988.50;;;-139.68;24.72
10940;BME280;5522;42.696;23.494;2023-02-16T11:18:28;53984.47;;;-139.68;25.41
10940;BME280;5522;42.696;23.494;2023-02-16T11:20:57;53942.25;;;-139.68;25.51
10940;BME280;5522;42.696;23.494;2023-02-16T11:23:27;54000.56;;;-139.68;24.81
10940;BME280;5522;42.696;23.494;2023-02-16T11:25:58;53968.41;;;-139.68;24.52
10940;BME280;5522;42.696;23.494;2023-02-16T11:28:29;53956.34;;;-139.68;24.43
10940;BME280;5522;42.696;23.494;2023-02-16T11:31:00;53932.22;;;-139.68;26.17
10940;BME280;5522;42.696;23.494;2023-02-16T11:33:27;53924.16;;;-139.68;27.20
10940;BME280;5522;42.696;23.494;2023-02-16T11:35:56;53928.19;;;-139.68;28.74
10940;BME280;5522;42.696;23.494;2023-02-16T11:38:28;53918.16;;;-139.68;29.79
10940;BME280;5522;42.696;23.494;2023-02-16T11:40:58;53910.09;;;-139.68;30.61
10940;BME280;5522;42.696;23.494;2023-02-16T11:43:27;53898.03;;;-139.68;30.66
10940;BME280;5522;42.696;23.494;2023-02-16T11:45:57;53920.16;;;-139.68;33.05
10940;BME280;5522;42.696;23.494;2023-02-16T11:48:27;53908.09;;;-139.68;33.61
10940;BME280;5522;42.696;23.494;2023-02-16T11:50:57;53912.13;;;-139.68;34.84
10940;BME280;5522;42.696;23.494;2023-02-16T11:53:26;53920.16;;;-139.68;35.08
10940;BME280;5522;42.696;23.494;2023-02-16T11:56:11;53908.09;;;-139.68;34.76
10940;BME280;5522;42.696;23.494;2023-02-16T11:58:39;53922.16;;;-139.68;34.47
10940;BME280;5522;42.696;23.494;2023-02-16T12:01:17;53930.22;;;-139.68;34.44
10940;BME280;5522;42.696;23.494;2023-02-16T12:03:55;53924.16;;;-139.68;34.15
10940;BME280;5522;42.696;23.494;2023-02-16T12:06:40;53926.19;;;-139.68;34.97
10940;BME280;5522;42.696;23.494;2023-02-16T12:09:18;53883.97;;;-139.68;35.96
10940;BME280;5522;42.696;23.494;2023-02-16T12:11:58;53920.16;;;-139.68;35.07
10940;BME280;5522;42.696;23.494;2023-02-16T12:14:35;53898.03;;;-139.68;35.89
10940;BME280;5522;42.696;23.494;2023-02-16T12:17:17;53855.81;;;-139.68;35.04
10940;BME280;5522;42.696;23.494;2023-02-16T12:19:47;53922.16;;;-139.68;35.66
10940;BME280;5522;42.696;23.494;2023-02-16T12:22:28;53881.97;;;-139.68;35.69
10940;BME280;5522;42.696;23.494;2023-02-16T12:25:07;53942.25;;;-139.68;35.19
10940;BME280;5522;42.696;23.494;2023-02-16T12:27:44;53879.94;;;-139.68;34.43
10940;BME280;5522;42.696;23.494;2023-02-16T12:30:24;53879.94;;;-139.68;34.63
10940;BME280;5522;42.696;23.494;2023-02-16T12:33:07;53873.91;;;-139.68;35.00
10940;BME280;5522;42.696;23.494;2023-02-16T12:38:49;53908.09;;;-139.68;35.42
10940;BME280;5522;42.696;23.494;2023-02-16T12:41:29;53890.00;;;-139.68;36.29
10940;BME280;5522;42.696;23.494;2023-02-16T12:44:09;53904.06;;;-139.68;36.03
10940;BME280;5522;42.696;23.494;2023-02-16T12:46:41;53881.97;;;-139.68;35.02
10940;BME280;5522;42.696;23.494;2023-02-16T12:49:13;53871.91;;;-139.68;34.94
10940;BME280;5522;42.696;23.494;2023-02-16T12:51:46;53851.81;;;-139.68;35.26
10940;BME280;5522;42.696;23.494;2023-02-16T12:54:18;53908.09;;;-139.68;35.11
10940;BME280;5522;42.696;23.494;2023-02-16T12:56:51;53900.06;;;-139.68;35.94
10940;BME280;5522;42.696;23.494;2023-02-16T12:59:24;53892.00;;;-139.68;35.61
10940;BME280;5522;42.696;23.494;2023-02-16T13:01:53;53948.31;;;-139.68;35.93
10940;BME280;5522;42.696;23.494;2023-02-16T13:04:37;53883.97;;;-139.68;35.59
10940;BME280;5522;42.696;23.494;2023-02-16T13:07:12;53898.03;;;-139.68;35.02
10940;BME280;5522;42.696;23.494;2023-02-16T13:09:49;53914.13;;;-139.68;35.83
10940;BME280;5522;42.696;23.494;2023-02-16T13:12:25;53888.00;;;-139.68;36.19
10940;BME280;5522;42.696;23.494;2023-02-16T13:15:00;53928.19;;;-139.68;35.84
10940;BME280;5522;42.696;23.494;2023-02-16T13:17:32;53896.03;;;-139.68;35.61
10940;BME280;5522;42.696;23.494;2023-02-16T13:20:00;53912.13;;;-139.68;34.98
10940;BME280;5522;42.696;23.494;2023-02-16T13:22:46;53904.06;;;-139.68;34.87
10940;BME280;5522;42.696;23.494;2023-02-16T13:25:48;53863.88;;;-139.68;35.34
10940;BME280;5522;42.696;23.494;2023-02-16T13:28:37;53912.13;;;-139.68;36.02